createdAt,value
2022-09-14T00:01:38.724Z,98.76
2022-09-14T00:04:11.642Z,98.78
2022-09-14T00:06:39.742Z,98.79
2022-09-14T00:09:08.412Z,98.86
2022-09-14T00:11:37.878Z,98.98
2022-09-14T00:14:07.266Z,99.05
2022-09-14T00:16:41.084Z,99.10
2022-09-14T00:19:23.044Z,99.14
2022-09-14T00:21:55.128Z,99.07
2022-09-14T00:24:25.838Z,99.03
2022-09-14T00:26:54.063Z,98.99
2022-09-14T00:29:21.789Z,99.01
2022-09-14T00:31:49.645Z,99.05
2022-09-14T00:34:19.098Z,99.14
2022-09-14T00:36:50.028Z,99.15
2022-09-14T00:39:21.511Z,99.24
2022-09-14T00:41:51.279Z,99.25
2022-09-14T00:44:18.895Z,99.10
2022-09-14T00:46:50.443Z,98.95
2022-09-14T00:49:42.181Z,99.01
2022-09-14T00:52:25.713Z,98.95
2022-09-14T00:54:58.660Z,98.90
2022-09-14T00:57:35.906Z,98.97
2022-09-14T01:00:07.923Z,99.10
2022-09-14T01:02:35.996Z,99.16
2022-09-14T01:05:04.790Z,99.13
2022-09-14T01:08:00.158Z,99.33
2022-09-14T01:11:04.795Z,99.11
2022-09-14T01:14:01.695Z,99.11
2022-09-14T01:16:41.372Z,99.28
2022-09-14T01:19:29.574Z,99.29
2022-09-14T01:22:05.081Z,99.18
2022-09-14T01:24:53.001Z,99.10
2022-09-14T01:27:35.365Z,99.02
2022-09-14T01:30:07.565Z,99.08
2022-09-14T01:33:01.737Z,99.01
2022-09-14T01:35:38.770Z,99.14
2022-09-14T01:38:21.811Z,99.09
2022-09-14T01:40:50.827Z,99.11
2022-09-14T01:43:46.263Z,99.00
2022-09-14T01:46:31.263Z,99.06
2022-09-14T01:49:18.447Z,98.93
2022-09-14T01:51:52.185Z,98.97
2022-09-14T01:54:31.998Z,98.85
2022-09-14T01:57:22.827Z,98.80
2022-09-14T01:59:56.442Z,98.94
2022-09-14T02:02:40.154Z,98.95
2022-09-14T02:05:42.228Z,98.87
2022-09-14T02:08:10.213Z,98.82
2022-09-14T02:10:38.287Z,98.71
2022-09-14T02:13:07.118Z,98.81
2022-09-14T02:15:36.972Z,98.73
2022-09-14T02:18:05.522Z,98.61
2022-09-14T02:21:06.729Z,98.54
2022-09-14T02:23:36.090Z,98.58
2022-09-14T02:26:05.119Z,98.42
2022-09-14T02:28:32.916Z,98.44
2022-09-14T02:31:20.482Z,98.53
2022-09-14T02:34:06.210Z,98.20
2022-09-14T02:37:03.242Z,98.19
2022-09-14T02:40:10.697Z,97.93
2022-09-14T02:42:55.951Z,98.14
2022-09-14T02:45:58.367Z,97.96
2022-09-14T02:48:48.539Z,97.80
2022-09-14T02:51:41.265Z,97.81
2022-09-14T02:54:18.162Z,97.78
2022-09-14T02:56:46.391Z,97.65
2022-09-14T02:59:14.079Z,97.50
2022-09-14T03:01:41.791Z,97.57
2022-09-14T03:04:09.658Z,97.58
2022-09-14T03:06:37.415Z,97.46
2022-09-14T03:09:05.140Z,97.28
2022-09-14T03:11:32.943Z,97.40
2022-09-14T03:14:00.802Z,97.46
2022-09-14T03:16:28.509Z,97.45
2022-09-14T03:18:56.258Z,97.46
2022-09-14T03:21:24.053Z,97.42
2022-09-14T03:23:55.188Z,97.45
2022-09-14T03:26:25.734Z,97.36
2022-09-14T03:28:57.363Z,97.50
2022-09-14T03:31:26.652Z,97.42
2022-09-14T03:33:56.981Z,97.57
2022-09-14T03:36:27.886Z,97.65
2022-09-14T03:38:59.032Z,97.64
2022-09-14T03:41:26.751Z,97.51
2022-09-14T03:43:54.703Z,97.65
2022-09-14T03:46:24.875Z,97.43
2022-09-14T03:48:55.222Z,97.52
2022-09-14T03:51:24.031Z,97.51
2022-09-14T03:53:52.077Z,97.46
2022-09-14T03:56:22.467Z,97.52
2022-09-14T03:58:50.832Z,97.61
2022-09-14T04:01:22.178Z,97.25
2022-09-14T04:03:50.764Z,97.46
2022-09-14T04:06:19.913Z,97.41
2022-09-14T04:08:48.571Z,97.25
2022-09-14T04:11:23.527Z,97.44
2022-09-14T04:13:52.780Z,97.16
2022-09-14T04:16:21.552Z,97.10
2022-09-14T04:18:49.483Z,97.07
2022-09-14T04:21:21.414Z,97.08
2022-09-14T04:26:44.905Z,96.91
2022-09-14T04:29:14.484Z,96.89
2022-09-14T04:31:42.191Z,96.48
2022-09-14T04:34:16.068Z,96.17
2022-09-14T04:36:43.854Z,96.61
2022-09-14T04:39:13.892Z,96.36
2022-09-14T04:41:41.909Z,96.31
2022-09-14T04:44:10.014Z,96.49
2022-09-14T04:46:46.269Z,95.98
2022-09-14T04:49:18.929Z,95.97
2022-09-14T04:51:47.597Z,95.94
2022-09-14T04:54:18.095Z,95.84
2022-09-14T04:56:46.072Z,95.50
2022-09-14T04:59:15.351Z,95.40
2022-09-14T05:01:45.666Z,95.44
2022-09-14T05:04:13.870Z,95.50
2022-09-14T05:06:44.270Z,95.14
2022-09-14T05:09:15.998Z,95.07
2022-09-14T05:11:45.296Z,95.14
2022-09-14T05:14:14.325Z,95.16
2022-09-14T05:16:43.733Z,95.07
2022-09-14T05:19:18.271Z,94.73
2022-09-14T05:21:46.987Z,95.02
2022-09-14T05:24:19.097Z,94.84
2022-09-14T05:26:47.726Z,94.60
2022-09-14T05:29:18.485Z,94.49
2022-09-14T05:31:47.252Z,94.40
2022-09-14T05:34:17.598Z,94.30
2022-09-14T05:36:45.374Z,94.41
2022-09-14T05:39:13.239Z,93.97
2022-09-14T05:41:40.976Z,93.91
2022-09-14T05:44:08.851Z,93.71
2022-09-14T05:46:36.794Z,93.78
2022-09-14T05:49:04.768Z,93.72
2022-09-14T05:51:32.922Z,93.29
2022-09-14T05:54:00.978Z,93.53
2022-09-14T05:56:31.562Z,93.17
2022-09-14T05:59:00.374Z,92.93
2022-09-14T06:01:32.735Z,92.70
2022-09-14T06:04:02.765Z,92.71
2022-09-14T06:06:32.389Z,92.82
2022-09-14T06:09:01.190Z,93.01
2022-09-14T06:11:33.166Z,92.76
2022-09-14T06:14:01.007Z,92.46
2022-09-14T06:16:29.278Z,92.28
2022-09-14T06:18:59.178Z,92.04
2022-09-14T06:21:36.320Z,91.93
2022-09-14T06:24:04.488Z,91.59
2022-09-14T06:26:32.355Z,91.50
2022-09-14T06:29:00.214Z,91.48
2022-09-14T06:31:28.111Z,91.35
2022-09-14T06:33:56.082Z,90.79
2022-09-14T06:36:26.666Z,91.05
2022-09-14T06:38:55.672Z,91.10
2022-09-14T06:41:28.977Z,90.25
2022-09-14T06:43:59.491Z,90.09
2022-09-14T06:46:31.728Z,89.89
2022-09-14T06:49:07.412Z,89.65
2022-09-14T06:51:44.728Z,89.66
2022-09-14T06:54:15.497Z,89.55
2022-09-14T06:56:45.219Z,89.11
2022-09-14T06:59:16.107Z,88.77
2022-09-14T07:01:51.338Z,89.12
2022-09-14T07:04:19.130Z,89.34
2022-09-14T07:06:50.474Z,90.01
2022-09-14T07:09:19.527Z,89.04
2022-09-14T07:11:47.826Z,88.91
2022-09-14T07:14:15.624Z,88.73
2022-09-14T07:16:43.384Z,88.96
2022-09-14T07:19:13.844Z,89.01
2022-09-14T07:21:43.001Z,89.32
2022-09-14T07:24:14.738Z,88.40
2022-09-14T07:26:43.287Z,87.99
2022-09-14T07:29:16.388Z,88.17
2022-09-14T07:31:52.208Z,88.07
2022-09-14T07:34:20.540Z,88.21
2022-09-14T07:36:48.309Z,88.28
2022-09-14T07:39:17.755Z,87.03
2022-09-14T07:41:45.538Z,86.28
2022-09-14T07:44:16.351Z,86.69
2022-09-14T07:46:46.588Z,85.69
2022-09-14T07:49:16.456Z,85.06
2022-09-14T07:51:45.401Z,84.45
2022-09-14T07:54:16.453Z,84.97
2022-09-14T07:56:45.402Z,83.32
2022-09-14T07:59:35.014Z,82.80
2022-09-14T08:02:04.643Z,83.36
2022-09-14T08:04:34.806Z,83.00
2022-09-14T08:07:03.403Z,82.84
2022-09-14T08:09:31.226Z,82.57
2022-09-14T08:11:58.965Z,82.30
2022-09-14T08:14:26.766Z,82.06
2022-09-14T08:16:54.597Z,81.88
2022-09-14T08:19:22.734Z,82.50
2022-09-14T08:21:51.135Z,81.36
2022-09-14T08:24:21.809Z,81.28
2022-09-14T08:26:49.614Z,80.49
2022-09-14T08:29:19.329Z,80.41
2022-09-14T08:31:48.501Z,80.31
2022-09-14T08:34:16.812Z,79.51
2022-09-14T08:36:46.767Z,78.92
2022-09-14T08:39:17.023Z,78.88
2022-09-14T08:41:55.587Z,78.42
2022-09-14T08:44:58.246Z,77.92
2022-09-14T08:47:32.151Z,77.03
2022-09-14T08:50:17.711Z,77.72
2022-09-14T08:52:53.006Z,76.66
2022-09-14T08:55:45.910Z,75.67
2022-09-14T08:59:13.983Z,74.17
2022-09-14T09:02:31.666Z,73.46
2022-09-14T09:05:33.202Z,72.91
2022-09-14T09:08:23.188Z,73.03
2022-09-14T09:10:54.440Z,72.83
2022-09-14T09:13:29.159Z,71.12
2022-09-14T09:16:06.191Z,69.36
2022-09-14T09:18:49.635Z,68.63
2022-09-14T09:21:27.566Z,69.18
2022-09-14T09:24:16.793Z,68.98
2022-09-14T09:26:44.539Z,67.43
2022-09-14T09:29:12.472Z,67.85
2022-09-14T09:31:59.513Z,66.85
2022-09-14T09:34:51.456Z,66.42
2022-09-14T09:37:34.560Z,66.40
2022-09-14T09:40:03.552Z,67.42
2022-09-14T09:42:31.572Z,65.94
2022-09-14T09:45:04.046Z,64.43
2022-09-14T09:47:41.015Z,64.86
2022-09-14T09:50:20.472Z,63.91
2022-09-14T09:53:02.216Z,63.40
2022-09-14T09:55:39.446Z,61.80
2022-09-14T09:58:38.651Z,61.93
2022-09-14T10:01:23.229Z,63.01
2022-09-14T10:04:16.715Z,62.38
2022-09-14T10:06:49.371Z,62.12
2022-09-14T10:09:23.542Z,62.73
2022-09-14T10:12:03.814Z,60.90
2022-09-14T10:14:37.573Z,59.61
2022-09-14T10:17:23.552Z,59.57
2022-09-14T10:19:54.354Z,58.66
2022-09-14T10:22:48.691Z,59.29
2022-09-14T10:25:16.303Z,59.88
2022-09-14T10:27:56.114Z,60.65
2022-09-14T10:30:34.526Z,62.42
2022-09-14T10:33:06.561Z,61.33
2022-09-14T10:36:25.994Z,60.33
2022-09-14T10:39:14.245Z,60.97
2022-09-14T10:42:05.972Z,60.60
2022-09-14T10:44:58.511Z,60.30
2022-09-14T10:47:56.154Z,60.19
2022-09-14T10:50:53.139Z,60.40
2022-09-14T10:54:13.946Z,62.00
2022-09-14T10:57:13.079Z,59.41
2022-09-14T11:00:01.978Z,57.63
2022-09-14T11:03:03.959Z,56.38
2022-09-14T11:05:42.647Z,57.33
2022-09-14T11:08:33.354Z,56.67
2022-09-14T11:11:36.987Z,56.34
2022-09-14T11:14:43.911Z,56.73
2022-09-14T11:17:40.331Z,56.93
2022-09-14T11:21:03.295Z,56.86
2022-09-14T11:24:13.557Z,57.50
2022-09-14T11:26:57.679Z,57.32
2022-09-14T11:29:33.690Z,57.44
2022-09-14T11:32:23.482Z,57.10
2022-09-14T11:35:03.258Z,57.27
2022-09-14T11:37:41.467Z,56.87
2022-09-14T11:40:34.404Z,57.54
2022-09-14T11:43:29.560Z,57.42
2022-09-14T11:46:15.961Z,59.45
2022-09-14T11:49:14.296Z,59.35
2022-09-14T11:52:21.350Z,58.21
2022-09-14T11:54:51.150Z,58.83
2022-09-14T11:57:26.177Z,58.74
2022-09-14T12:00:00.707Z,58.20
2022-09-14T12:02:28.582Z,58.50
2022-09-14T12:05:05.571Z,59.62
2022-09-14T12:08:01.871Z,59.15
2022-09-14T12:10:31.032Z,59.26
2022-09-14T12:13:20.329Z,60.18
2022-09-14T12:15:48.239Z,60.01
2022-09-14T12:18:23.388Z,59.57
2022-09-14T12:21:20.709Z,58.94
2022-09-14T12:23:53.241Z,59.85
2022-09-14T12:26:20.969Z,59.98
2022-09-14T12:28:56.231Z,61.08
2022-09-14T12:32:01.353Z,58.80
2022-09-14T12:34:33.162Z,59.45
2022-09-14T12:37:30.637Z,59.79
2022-09-14T12:40:20.787Z,58.88
2022-09-14T12:42:49.189Z,57.83
2022-09-14T12:46:08.222Z,57.29
2022-09-14T12:48:53.049Z,56.16
2022-09-14T12:51:45.518Z,55.77
2022-09-14T12:54:51.188Z,56.84
2022-09-14T12:57:42.396Z,57.13
2022-09-14T13:00:19.967Z,56.91
2022-09-14T13:03:42.056Z,57.84
2022-09-14T13:06:13.555Z,58.05
2022-09-14T13:08:48.100Z,58.17
2022-09-14T13:11:37.209Z,58.61
2022-09-14T13:14:05.331Z,59.49
2022-09-14T13:16:44.194Z,59.01
2022-09-14T13:19:33.955Z,58.47
2022-09-14T13:22:02.945Z,58.18
2022-09-14T13:24:52.002Z,57.93
2022-09-14T13:27:25.666Z,58.08
2022-09-14T13:30:11.317Z,58.02
2022-09-14T13:32:45.990Z,57.82
2022-09-14T13:35:48.976Z,59.01
2022-09-14T13:38:31.046Z,59.52
2022-09-14T13:41:12.301Z,59.34
2022-09-14T13:43:41.870Z,58.30
2022-09-14T13:46:18.400Z,57.68
2022-09-14T13:48:49.783Z,57.96
2022-09-14T13:51:23.763Z,57.83
2022-09-14T13:53:55.667Z,57.60
2022-09-14T13:56:32.334Z,57.82
2022-09-14T13:59:12.061Z,58.23
2022-09-14T14:01:50.244Z,58.16
2022-09-14T14:04:39.379Z,57.72
2022-09-14T14:07:25.301Z,57.30
2022-09-14T14:09:59.719Z,57.20
2022-09-14T14:12:32.102Z,57.50
2022-09-14T14:15:06.157Z,57.70
2022-09-14T14:17:39.823Z,58.02
2022-09-14T14:20:26.477Z,58.06
2022-09-14T14:23:13.253Z,58.39
2022-09-14T14:25:51.893Z,57.99
2022-09-14T14:28:26.854Z,58.54
2022-09-14T14:30:57.628Z,58.19
2022-09-14T14:33:26.128Z,58.11
2022-09-14T14:35:56.707Z,58.36
2022-09-14T14:38:25.465Z,57.68
2022-09-14T14:40:55.609Z,57.93
2022-09-14T14:43:26.222Z,58.56
2022-09-14T14:46:01.682Z,57.76
2022-09-14T14:48:29.943Z,58.19
2022-09-14T14:50:58.058Z,58.69
2022-09-14T14:53:26.404Z,58.67
2022-09-14T14:55:54.422Z,59.00
2022-09-14T14:58:23.349Z,58.97
2022-09-14T15:00:52.898Z,58.99
2022-09-14T15:03:20.743Z,59.46
2022-09-14T15:05:49.731Z,59.59
2022-09-14T15:08:19.996Z,59.60
2022-09-14T15:10:48.832Z,59.93
2022-09-14T15:13:16.576Z,60.26
2022-09-14T15:15:44.992Z,60.16
2022-09-14T15:18:12.768Z,60.27
2022-09-14T15:20:41.256Z,60.85
2022-09-14T15:23:14.007Z,61.13
2022-09-14T15:25:41.684Z,60.65
2022-09-14T15:28:09.386Z,60.10
2022-09-14T15:30:38.351Z,60.17
2022-09-14T15:33:06.188Z,61.18
2022-09-14T15:35:33.885Z,60.87
2022-09-14T15:38:01.740Z,60.87
2022-09-14T15:40:29.570Z,60.94
2022-09-14T15:42:57.310Z,61.05
2022-09-14T15:45:25.192Z,61.41
2022-09-14T15:47:53.005Z,61.19
2022-09-14T15:50:20.774Z,62.02
2022-09-14T15:52:48.475Z,61.95
2022-09-14T15:55:16.355Z,62.11
2022-09-14T15:57:44.178Z,62.28
2022-09-14T16:00:14.719Z,62.54
2022-09-14T16:02:43.977Z,62.95
2022-09-14T16:05:12.866Z,63.24
2022-09-14T16:07:40.722Z,63.58
2022-09-14T16:10:09.299Z,63.74
2022-09-14T16:12:37.149Z,63.81
2022-09-14T16:15:05.631Z,63.90
2022-09-14T16:17:33.364Z,64.34
2022-09-14T16:20:01.761Z,64.83
2022-09-14T16:22:29.608Z,64.92
2022-09-14T16:24:57.343Z,65.10
2022-09-14T16:27:25.067Z,65.49
2022-09-14T16:29:52.828Z,65.96
2022-09-14T16:32:22.033Z,66.22
2022-09-14T16:34:49.740Z,66.04
2022-09-14T16:37:17.667Z,66.19
2022-09-14T16:39:47.897Z,66.18
2022-09-14T16:42:15.929Z,66.15
2022-09-14T16:44:44.117Z,66.60
2022-09-14T16:47:11.999Z,66.86
2022-09-14T16:49:39.802Z,67.08
2022-09-14T16:52:07.699Z,67.10
2022-09-14T16:54:35.619Z,67.19
2022-09-14T16:57:03.578Z,67.55
2022-09-14T16:59:31.379Z,67.78
2022-09-14T17:01:59.136Z,68.13
2022-09-14T17:04:27.013Z,68.58
2022-09-14T17:06:56.093Z,68.64
2022-09-14T17:09:29.729Z,68.70
2022-09-14T17:11:59.084Z,68.67
2022-09-14T17:14:31.247Z,68.88
2022-09-14T17:16:59.938Z,69.08
2022-09-14T17:19:28.531Z,69.48
2022-09-14T17:21:57.051Z,69.73
2022-09-14T17:24:25.908Z,69.61
2022-09-14T17:26:53.634Z,70.03
2022-09-14T17:29:21.422Z,70.13
2022-09-14T17:31:50.697Z,70.32
2022-09-14T17:34:18.618Z,70.46
2022-09-14T17:36:46.403Z,70.49
2022-09-14T17:39:15.706Z,70.61
2022-09-14T17:41:44.149Z,70.96
2022-09-14T17:44:14.510Z,71.15
2022-09-14T17:46:51.226Z,71.57
2022-09-14T17:49:23.681Z,71.42
2022-09-14T17:51:51.822Z,71.67
2022-09-14T17:54:20.316Z,71.50
2022-09-14T17:56:48.740Z,71.50
2022-09-14T17:59:20.665Z,71.40
2022-09-14T18:01:49.698Z,71.79
2022-09-14T18:04:18.844Z,72.21
2022-09-14T18:06:49.773Z,71.96
2022-09-14T18:09:22.092Z,72.48
2022-09-14T18:11:51.488Z,72.13
2022-09-14T18:14:19.266Z,71.97
2022-09-14T18:16:47.307Z,72.02
2022-09-14T18:19:16.209Z,72.36
2022-09-14T18:21:45.925Z,72.43
2022-09-14T18:24:15.774Z,72.60
2022-09-14T18:26:46.158Z,72.58
2022-09-14T18:29:16.635Z,73.31
2022-09-14T18:31:44.637Z,73.53
2022-09-14T18:34:13.235Z,72.79
2022-09-14T18:36:41.067Z,73.06
2022-09-14T18:39:09.837Z,73.19
2022-09-14T18:41:37.587Z,73.22
2022-09-14T18:44:05.425Z,73.51
2022-09-14T18:46:33.222Z,73.53
2022-09-14T18:49:03.151Z,73.37
2022-09-14T18:51:39.383Z,73.52
2022-09-14T18:54:08.575Z,73.72
2022-09-14T18:56:36.927Z,73.90
2022-09-14T18:59:10.516Z,73.97
2022-09-14T19:01:40.243Z,74.08
2022-09-14T19:04:10.468Z,74.59
2022-09-14T19:06:39.307Z,74.56
2022-09-14T19:09:07.793Z,74.44
2022-09-14T19:11:36.433Z,74.15
2022-09-14T19:14:10.285Z,74.10
2022-09-14T19:16:40.519Z,73.96
2022-09-14T19:19:15.169Z,74.13
2022-09-14T19:21:44.297Z,74.04
2022-09-14T19:24:15.801Z,73.89
2022-09-14T19:26:51.235Z,74.34
2022-09-14T19:29:22.609Z,74.23
2022-09-14T19:31:52.118Z,74.82
2022-09-14T19:34:23.134Z,74.97
2022-09-14T19:36:51.050Z,75.25
2022-09-14T19:39:19.098Z,75.25
2022-09-14T19:41:47.425Z,75.03
2022-09-14T19:44:16.873Z,75.21
2022-09-14T19:46:44.779Z,75.55
2022-09-14T19:49:20.549Z,76.60
2022-09-14T19:51:49.669Z,76.57
2022-09-14T19:54:18.637Z,76.14
2022-09-14T19:56:46.584Z,76.08
2022-09-14T19:59:16.475Z,75.96
2022-09-14T20:01:45.152Z,75.82
2022-09-14T20:04:15.629Z,75.88
2022-09-14T20:06:46.956Z,75.99
2022-09-14T20:09:22.202Z,76.19
2022-09-14T20:11:52.637Z,76.23
2022-09-14T20:14:24.913Z,76.19
2022-09-14T20:16:59.731Z,76.55
2022-09-14T20:19:29.485Z,76.61
2022-09-14T20:21:57.605Z,77.11
2022-09-14T20:24:28.537Z,77.88
2022-09-14T20:27:00.277Z,78.40
2022-09-14T20:29:34.023Z,78.22
2022-09-14T20:32:04.737Z,77.83
2022-09-14T20:34:34.279Z,77.93
2022-09-14T20:37:03.358Z,77.95
2022-09-14T20:39:31.618Z,77.70
2022-09-14T20:41:59.443Z,77.76
2022-09-14T20:44:27.146Z,78.25
2022-09-14T20:46:54.994Z,77.99
2022-09-14T20:49:26.899Z,78.58
2022-09-14T20:51:54.933Z,78.43
2022-09-14T20:54:23.262Z,77.95
2022-09-14T20:56:51.129Z,78.01
2022-09-14T20:59:21.825Z,78.30
2022-09-14T21:01:52.429Z,78.52
2022-09-14T21:04:23.668Z,78.96
2022-09-14T21:06:55.394Z,77.98
2022-09-14T21:09:25.510Z,78.63
2022-09-14T21:11:54.338Z,79.55
2022-09-14T21:14:22.567Z,79.21
2022-09-14T21:16:56.444Z,78.53
2022-09-14T21:19:28.248Z,78.63
2022-09-14T21:21:56.918Z,78.84
2022-09-14T21:24:25.310Z,78.89
2022-09-14T21:26:53.422Z,79.50
2022-09-14T21:29:23.631Z,80.34
2022-09-14T21:31:52.779Z,80.41
2022-09-14T21:34:21.373Z,80.07
2022-09-14T21:36:51.653Z,79.94
2022-09-14T21:39:23.987Z,79.92
2022-09-14T21:41:58.833Z,80.07
2022-09-14T21:44:34.237Z,80.20
2022-09-14T21:47:04.404Z,80.59
2022-09-14T21:49:32.353Z,81.27
2022-09-14T21:52:00.175Z,81.22
2022-09-14T21:54:28.327Z,80.46
2022-09-14T21:56:56.691Z,80.16
2022-09-14T21:59:24.738Z,80.13
2022-09-14T22:01:52.967Z,80.12
2022-09-14T22:04:23.877Z,80.30
2022-09-14T22:06:53.346Z,79.79
2022-09-14T22:09:25.384Z,79.75
2022-09-14T22:11:53.821Z,80.02
2022-09-14T22:14:25.874Z,80.19
2022-09-14T22:16:54.371Z,80.11
2022-09-14T22:19:29.937Z,80.03
2022-09-14T22:21:58.282Z,80.52
2022-09-14T22:24:37.475Z,80.18
2022-09-14T22:27:09.491Z,80.06
2022-09-14T22:29:40.526Z,79.93
2022-09-14T22:32:11.064Z,79.87
2022-09-14T22:34:42.310Z,79.84
2022-09-14T22:37:11.580Z,80.13
2022-09-14T22:39:39.278Z,80.51
2022-09-14T22:42:07.053Z,80.59
2022-09-14T22:44:34.765Z,80.00
2022-09-14T22:47:02.459Z,79.83
2022-09-14T22:49:30.737Z,79.78
2022-09-14T22:51:58.462Z,79.35
2022-09-14T22:54:26.162Z,79.43
2022-09-14T22:56:53.878Z,79.70
2022-09-14T22:59:21.772Z,79.03
2022-09-14T23:01:49.537Z,79.24
2022-09-14T23:04:17.366Z,79.07
2022-09-14T23:06:47.982Z,79.61
2022-09-14T23:09:20.290Z,79.48
2022-09-14T23:11:48.708Z,79.52
2022-09-14T23:14:17.306Z,79.47
2022-09-14T23:16:45.680Z,79.32
2022-09-14T23:19:18.206Z,79.00
2022-09-14T23:21:46.835Z,78.98
2022-09-14T23:24:15.050Z,78.84
2022-09-14T23:26:43.082Z,79.90
2022-09-14T23:29:15.764Z,80.77
2022-09-14T23:31:44.455Z,80.47
2022-09-14T23:34:12.560Z,80.06
2022-09-14T23:36:40.441Z,80.23
2022-09-14T23:39:08.288Z,80.31
2022-09-14T23:41:36.015Z,80.94
2022-09-14T23:44:04.115Z,80.85
2022-09-14T23:46:32.423Z,80.89
2022-09-14T23:49:00.085Z,80.88
2022-09-14T23:51:27.799Z,81.61
2022-09-14T23:53:55.524Z,81.80
2022-09-14T23:56:23.625Z,82.03
2022-09-14T23:58:51.731Z,81.68
